sensor_id;sensor_type;location;lat;lon;timestamp;pressure;altitude;pressure_sealevel;temperature;humidity
56518;BME280;42419;48.760;2.322;2023-07-20T00:01:16;100996.38;;;24.97;nan
56518;BME280;42419;48.760;2.322;2023-07-20T00:03:41;100987.00;;;24.89;nan
56518;BME280;42419;48.760;2.322;2023-07-20T00:06:06;100997.50;;;24.93;nan
56518;BME280;42419;48.760;2.322;2023-07-20T00:08:32;100993.75;;;24.96;nan
56518;BME280;42419;48.760;2.322;2023-07-20T00:10:57;100981.69;;;24.87;nan
56518;BME280;42419;48.760;2.322;2023-07-20T00:13:23;100995.50;;;24.97;nan
56518;BME280;42419;48.760;2.322;2023-07-20T00:15:48;100982.56;;;24.88;nan
56518;BME280;42419;48.760;2.322;2023-07-20T00:18:14;100992.88;;;24.95;nan
56518;BME280;42419;48.760;2.322;2023-07-20T00:20:40;101001.84;;;24.96;nan
56518;BME280;42419;48.760;2.322;2023-07-20T00:23:05;101000.97;;;24.95;nan
56518;BME280;42419;48.760;2.322;2023-07-20T00:25:31;100986.81;;;24.92;nan
56518;BME280;42419;48.760;2.322;2023-07-20T00:27:56;100991.50;;;24.88;nan
56518;BME280;42419;48.760;2.322;2023-07-20T00:30:21;100988.56;;;24.93;nan
56518;BME280;42419;48.760;2.322;2023-07-20T00:32:47;100988.56;;;24.93;nan
56518;BME280;42419;48.760;2.322;2023-07-20T00:35:13;100989.56;;;24.90;nan
56518;BME280;42419;48.760;2.322;2023-07-20T00:37:39;100990.44;;;24.91;nan
56518;BME280;42419;48.760;2.322;2023-07-20T00:40:05;100996.72;;;24.91;nan
56518;BME280;42419;48.760;2.322;2023-07-20T00:42:32;100998.38;;;24.94;nan
56518;BME280;42419;48.760;2.322;2023-07-20T00:44:58;101003.78;;;24.94;nan
56518;BME280;42419;48.760;2.322;2023-07-20T00:47:23;100993.00;;;24.94;nan
56518;BME280;42419;48.760;2.322;2023-07-20T00:49:50;101004.72;;;24.93;nan
56518;BME280;42419;48.760;2.322;2023-07-20T00:52:16;100974.03;;;24.80;nan
56518;BME280;42419;48.760;2.322;2023-07-20T00:54:41;100987.88;;;24.89;nan
56518;BME280;42419;48.760;2.322;2023-07-20T00:57:07;100966.91;;;24.79;nan
56518;BME280;42419;48.760;2.322;2023-07-20T00:59:36;100994.13;;;24.90;nan
56518;BME280;42419;48.760;2.322;2023-07-20T01:02:02;100991.31;;;24.91;nan
56518;BME280;42419;48.760;2.322;2023-07-20T01:04:28;100990.44;;;24.91;nan
56518;BME280;42419;48.760;2.322;2023-07-20T01:12:08;100992.38;;;24.89;nan
56518;BME280;42419;48.760;2.322;2023-07-20T01:14:35;100989.56;;;24.90;nan
56518;BME280;42419;48.760;2.322;2023-07-20T01:17:02;100980.03;;;24.85;nan
56518;BME280;42419;48.760;2.322;2023-07-20T01:19:27;100980.03;;;24.85;nan
56518;BME280;42419;48.760;2.322;2023-07-20T01:24:31;100984.38;;;24.87;nan
56518;BME280;42419;48.760;2.322;2023-07-20T01:27:13;100981.69;;;24.87;nan
56518;BME280;42419;48.760;2.322;2023-07-20T01:32:26;100984.56;;;24.84;nan
56518;BME280;42419;48.760;2.322;2023-07-20T01:34:52;100981.75;;;24.86;nan
56518;BME280;42419;48.760;2.322;2023-07-20T01:37:20;100988.00;;;24.86;nan
56518;BME280;42419;48.760;2.322;2023-07-20T01:39:46;100983.50;;;24.87;nan
56518;BME280;42419;48.760;2.322;2023-07-20T01:42:11;100981.84;;;24.84;nan
56518;BME280;42419;48.760;2.322;2023-07-20T01:44:38;100976.38;;;24.86;nan
56518;BME280;42419;48.760;2.322;2023-07-20T01:47:03;100985.44;;;24.85;nan
56518;BME280;42419;48.760;2.322;2023-07-20T01:49:29;100979.16;;;24.84;nan
56518;BME280;42419;48.760;2.322;2023-07-20T01:51:54;100975.59;;;24.84;nan
56518;BME280;42419;48.760;2.322;2023-07-20T01:54:19;100972.09;;;24.82;nan
56518;BME280;42419;48.760;2.322;2023-07-20T01:56:46;100963.16;;;24.81;nan
56518;BME280;42419;48.760;2.322;2023-07-20T01:59:11;100969.53;;;24.80;nan
56518;BME280;42419;48.760;2.322;2023-07-20T02:01:37;100966.91;;;24.79;nan
56518;BME280;42419;48.760;2.322;2023-07-20T02:04:02;100971.34;;;24.80;nan
56518;BME280;42419;48.760;2.322;2023-07-20T02:06:27;100969.59;;;24.79;nan
56518;BME280;42419;48.760;2.322;2023-07-20T02:08:53;100971.34;;;24.80;nan
56518;BME280;42419;48.760;2.322;2023-07-20T02:11:18;100965.16;;;24.78;nan
56518;BME280;42419;48.760;2.322;2023-07-20T02:13:43;100962.47;;;24.78;nan
56518;BME280;42419;48.760;2.322;2023-07-20T02:16:08;100925.88;;;24.58;nan
56518;BME280;42419;48.760;2.322;2023-07-20T02:18:34;100956.31;;;24.76;nan
56518;BME280;42419;48.760;2.322;2023-07-20T02:21:01;100942.41;;;24.68;nan
56518;BME280;42419;48.760;2.322;2023-07-20T02:23:26;100943.25;;;24.68;nan
56518;BME280;42419;48.760;2.322;2023-07-20T02:25:51;100960.72;;;24.77;nan
56518;BME280;42419;48.760;2.322;2023-07-20T02:28:17;100959.00;;;24.76;nan
56518;BME280;42419;48.760;2.322;2023-07-20T02:30:42;100946.75;;;24.70;nan
56518;BME280;42419;48.760;2.322;2023-07-20T02:33:08;100960.91;;;24.74;nan
56518;BME280;42419;48.760;2.322;2023-07-20T02:35:33;100957.31;;;24.73;nan
56518;BME280;42419;48.760;2.322;2023-07-20T02:37:59;100960.03;;;24.73;nan
56518;BME280;42419;48.760;2.322;2023-07-20T02:40:24;100934.91;;;24.57;nan
56518;BME280;42419;48.760;2.322;2023-07-20T02:42:49;100939.88;;;24.65;nan
56518;BME280;42419;48.760;2.322;2023-07-20T02:45:15;100954.03;;;24.68;nan
56518;BME280;42419;48.760;2.322;2023-07-20T02:47:40;100969.03;;;24.72;nan
56518;BME280;42419;48.760;2.322;2023-07-20T02:50:08;100968.09;;;24.73;nan
56518;BME280;42419;48.760;2.322;2023-07-20T02:52:34;100948.03;;;24.63;nan
56518;BME280;42419;48.760;2.322;2023-07-20T02:54:59;100950.81;;;24.62;nan
56518;BME280;42419;48.760;2.322;2023-07-20T02:57:25;100954.13;;;24.67;nan
56518;BME280;42419;48.760;2.322;2023-07-20T02:59:50;100942.56;;;24.65;nan
56518;BME280;42419;48.760;2.322;2023-07-20T03:02:15;100950.50;;;24.68;nan
56518;BME280;42419;48.760;2.322;2023-07-20T03:04:40;100956.72;;;24.68;nan
56518;BME280;42419;48.760;2.322;2023-07-20T03:07:06;100955.00;;;24.67;nan
56518;BME280;42419;48.760;2.322;2023-07-20T03:09:32;100957.59;;;24.69;nan
56518;BME280;42419;48.760;2.322;2023-07-20T03:11:58;100937.84;;;24.52;nan
56518;BME280;42419;48.760;2.322;2023-07-20T03:14:23;100956.72;;;24.68;nan
56518;BME280;42419;48.760;2.322;2023-07-20T03:16:49;100954.13;;;24.67;nan
56518;BME280;42419;48.760;2.322;2023-07-20T03:19:14;100955.25;;;24.63;nan
56518;BME280;42419;48.760;2.322;2023-07-20T03:21:39;100946.44;;;24.59;nan
56518;BME280;42419;48.760;2.322;2023-07-20T03:24:07;100963.16;;;24.66;nan
56518;BME280;42419;48.760;2.322;2023-07-20T03:26:33;100964.03;;;24.66;nan
56518;BME280;42419;48.760;2.322;2023-07-20T03:28:58;100956.91;;;24.65;nan
56518;BME280;42419;48.760;2.322;2023-07-20T03:31:24;100950.81;;;24.62;nan
56518;BME280;42419;48.760;2.322;2023-07-20T03:33:49;100963.16;;;24.66;nan
56518;BME280;42419;48.760;2.322;2023-07-20T03:36:14;100956.03;;;24.65;nan
56518;BME280;42419;48.760;2.322;2023-07-20T03:38:40;100958.81;;;24.63;nan
56518;BME280;42419;48.760;2.322;2023-07-20T03:41:05;100963.34;;;24.63;nan
56518;BME280;42419;48.760;2.322;2023-07-20T03:43:30;100966.91;;;24.63;nan
56518;BME280;42419;48.760;2.322;2023-07-20T03:45:56;100962.47;;;24.62;nan
56518;BME280;42419;48.760;2.322;2023-07-20T03:48:23;100959.75;;;24.62;nan
56518;BME280;42419;48.760;2.322;2023-07-20T03:50:50;100953.94;;;24.54;nan
56518;BME280;42419;48.760;2.322;2023-07-20T03:53:16;100965.22;;;24.60;nan
56518;BME280;42419;48.760;2.322;2023-07-20T03:55:44;100957.22;;;24.59;nan
56518;BME280;42419;48.760;2.322;2023-07-20T03:58:11;100958.09;;;24.59;nan
56518;BME280;42419;48.760;2.322;2023-07-20T04:00:36;100957.16;;;24.60;nan
56518;BME280;42419;48.760;2.322;2023-07-20T04:03:02;100960.72;;;24.61;nan
56518;BME280;42419;48.760;2.322;2023-07-20T04:05:27;100936.13;;;24.51;nan
56518;BME280;42419;48.760;2.322;2023-07-20T04:07:52;100947.31;;;24.59;nan
56518;BME280;42419;48.760;2.322;2023-07-20T04:10:18;100944.63;;;24.59;nan
56518;BME280;42419;48.760;2.322;2023-07-20T04:12:44;100947.31;;;24.59;nan
56518;BME280;42419;48.760;2.322;2023-07-20T04:15:10;100944.63;;;24.59;nan
56518;BME280;42419;48.760;2.322;2023-07-20T04:17:35;100938.31;;;24.60;nan
56518;BME280;42419;48.760;2.322;2023-07-20T04:20:00;100925.41;;;24.50;nan
56518;BME280;42419;48.760;2.322;2023-07-20T04:22:26;100938.47;;;24.57;nan
56518;BME280;42419;48.760;2.322;2023-07-20T04:24:52;100947.31;;;24.59;nan
56518;BME280;42419;48.760;2.322;2023-07-20T04:27:17;100948.31;;;24.58;nan
56518;BME280;42419;48.760;2.322;2023-07-20T04:29:43;100945.59;;;24.58;nan
56518;BME280;42419;48.760;2.322;2023-07-20T04:32:08;100920.34;;;24.44;nan
56518;BME280;42419;48.760;2.322;2023-07-20T04:34:33;100947.44;;;24.58;nan
56518;BME280;42419;48.760;2.322;2023-07-20T04:37:02;100940.22;;;24.58;nan
56518;BME280;42419;48.760;2.322;2023-07-20T04:39:28;100947.44;;;24.58;nan
56518;BME280;42419;48.760;2.322;2023-07-20T04:41:53;100947.31;;;24.59;nan
56518;BME280;42419;48.760;2.322;2023-07-20T04:44:19;100933.09;;;24.57;nan
56518;BME280;42419;48.760;2.322;2023-07-20T04:46:44;100942.03;;;24.58;nan
56518;BME280;42419;48.760;2.322;2023-07-20T04:49:10;100943.75;;;24.59;nan
56518;BME280;42419;48.760;2.322;2023-07-20T04:51:38;100946.56;;;24.57;nan
56518;BME280;42419;48.760;2.322;2023-07-20T04:54:03;100923.75;;;24.47;nan
56518;BME280;42419;48.760;2.322;2023-07-20T04:56:28;100935.94;;;24.54;nan
56518;BME280;42419;48.760;2.322;2023-07-20T04:58:54;100943.00;;;24.57;nan
56518;BME280;42419;48.760;2.322;2023-07-20T05:01:19;100943.00;;;24.57;nan
56518;BME280;42419;48.760;2.322;2023-07-20T05:03:44;100950.19;;;24.56;nan
56518;BME280;42419;48.760;2.322;2023-07-20T05:06:10;100949.41;;;24.54;nan
56518;BME280;42419;48.760;2.322;2023-07-20T05:08:35;100946.63;;;24.56;nan
56518;BME280;42419;48.760;2.322;2023-07-20T05:11:00;100936.13;;;24.51;nan
56518;BME280;42419;48.760;2.322;2023-07-20T05:13:26;100944.19;;;24.51;nan
56518;BME280;42419;48.760;2.322;2023-07-20T05:15:54;100955.50;;;24.58;nan
56518;BME280;42419;48.760;2.322;2023-07-20T05:18:19;100933.72;;;24.45;nan
56518;BME280;42419;48.760;2.322;2023-07-20T05:20:49;100956.19;;;24.62;nan
56518;BME280;42419;48.760;2.322;2023-07-20T05:23:16;100954.44;;;24.60;nan
56518;BME280;42419;48.760;2.322;2023-07-20T05:25:42;100944.81;;;24.56;nan
56518;BME280;42419;48.760;2.322;2023-07-20T05:28:07;100959.66;;;24.64;nan
56518;BME280;42419;48.760;2.322;2023-07-20T05:30:33;100903.03;;;24.32;nan
56518;BME280;42419;48.760;2.322;2023-07-20T05:32:58;100954.28;;;24.64;nan
56518;BME280;42419;48.760;2.322;2023-07-20T05:35:23;100958.72;;;24.65;nan
56518;BME280;42419;48.760;2.322;2023-07-20T05:37:49;100957.22;;;24.59;nan
56518;BME280;42419;48.760;2.322;2023-07-20T05:40:15;100954.44;;;24.60;nan
56518;BME280;42419;48.760;2.322;2023-07-20T05:42:44;100960.47;;;24.66;nan
56518;BME280;42419;48.760;2.322;2023-07-20T05:45:09;100965.91;;;24.64;nan
56518;BME280;42419;48.760;2.322;2023-07-20T05:47:35;100944.19;;;24.51;nan
56518;BME280;42419;48.760;2.322;2023-07-20T05:50:00;100952.97;;;24.55;nan
56518;BME280;42419;48.760;2.322;2023-07-20T05:52:25;100954.00;;;24.52;nan
56518;BME280;42419;48.760;2.322;2023-07-20T05:54:51;100952.34;;;24.50;nan
56518;BME280;42419;48.760;2.322;2023-07-20T05:57:16;100945.28;;;24.47;nan
56518;BME280;42419;48.760;2.322;2023-07-20T05:59:41;100949.78;;;24.47;nan
56518;BME280;42419;48.760;2.322;2023-07-20T06:02:09;100949.97;;;24.44;nan
56518;BME280;42419;48.760;2.322;2023-07-20T06:04:35;100949.66;;;24.33;nan
56518;BME280;42419;48.760;2.322;2023-07-20T06:07:00;100918.63;;;23.93;nan
56518;BME280;42419;48.760;2.322;2023-07-20T06:09:25;100952.66;;;23.94;nan
56518;BME280;42419;48.760;2.322;2023-07-20T06:11:55;100892.75;;;23.39;nan
56518;BME280;42419;48.760;2.322;2023-07-20T06:14:21;100958.59;;;23.47;nan
56518;BME280;42419;48.760;2.322;2023-07-20T06:16:46;100957.09;;;23.24;nan
56518;BME280;42419;48.760;2.322;2023-07-20T06:19:12;100959.84;;;23.04;nan
56518;BME280;42419;48.760;2.322;2023-07-20T06:21:38;100961.38;;;22.91;nan
56518;BME280;42419;48.760;2.322;2023-07-20T06:24:03;100928.00;;;22.59;nan
56518;BME280;42419;48.760;2.322;2023-07-20T06:26:28;100948.31;;;22.65;nan
56518;BME280;42419;48.760;2.322;2023-07-20T06:28:55;100945.03;;;22.58;nan
56518;BME280;42419;48.760;2.322;2023-07-20T06:31:21;100955.72;;;22.60;nan
56518;BME280;42419;48.760;2.322;2023-07-20T06:33:46;100934.13;;;22.42;nan
56518;BME280;42419;48.760;2.322;2023-07-20T06:36:11;100949.84;;;22.50;nan
56518;BME280;42419;48.760;2.322;2023-07-20T06:38:37;100951.75;;;22.48;nan
56518;BME280;42419;48.760;2.322;2023-07-20T06:41:02;100948.97;;;22.50;nan
56518;BME280;42419;48.760;2.322;2023-07-20T06:43:27;100941.97;;;22.47;nan
56518;BME280;42419;48.760;2.322;2023-07-20T06:45:53;100948.00;;;22.52;nan
56518;BME280;42419;48.760;2.322;2023-07-20T06:48:18;100945.25;;;22.54;nan
56518;BME280;42419;48.760;2.322;2023-07-20T06:50:44;100927.81;;;22.44;nan
56518;BME280;42419;48.760;2.322;2023-07-20T06:53:09;100935.72;;;22.47;nan
56518;BME280;42419;48.760;2.322;2023-07-20T06:55:34;100953.97;;;22.59;nan
56518;BME280;42419;48.760;2.322;2023-07-20T06:58:00;100950.28;;;22.61;nan
56518;BME280;42419;48.760;2.322;2023-07-20T07:00:25;100947.50;;;22.63;nan
56518;BME280;42419;48.760;2.322;2023-07-20T07:02:50;100950.19;;;22.63;nan
56518;BME280;42419;48.760;2.322;2023-07-20T07:05:16;100936.72;;;22.64;nan
56518;BME280;42419;48.760;2.322;2023-07-20T07:07:41;100933.00;;;22.67;nan
56518;BME280;42419;48.760;2.322;2023-07-20T07:10:07;100935.63;;;22.68;nan
56518;BME280;42419;48.760;2.322;2023-07-20T07:12:33;100919.81;;;22.62;nan
56518;BME280;42419;48.760;2.322;2023-07-20T07:14:59;100933.59;;;22.73;nan
56518;BME280;42419;48.760;2.322;2023-07-20T07:17:25;100928.94;;;22.77;nan
56518;BME280;42419;48.760;2.322;2023-07-20T07:19:51;100923.72;;;22.74;nan
56518;BME280;42419;48.760;2.322;2023-07-20T07:22:19;100913.91;;;22.73;nan
56518;BME280;42419;48.760;2.322;2023-07-20T07:24:45;100922.56;;;22.79;nan
56518;BME280;42419;48.760;2.322;2023-07-20T07:27:11;100929.44;;;22.85;nan
56518;BME280;42419;48.760;2.322;2023-07-20T07:29:36;100918.63;;;22.87;nan
56518;BME280;42419;48.760;2.322;2023-07-20T07:32:01;100915.72;;;22.91;nan
56518;BME280;42419;48.760;2.322;2023-07-20T07:34:27;100932.44;;;22.98;nan
56518;BME280;42419;48.760;2.322;2023-07-20T07:36:52;100920.16;;;22.92;nan
56518;BME280;42419;48.760;2.322;2023-07-20T07:39:18;100901.97;;;22.80;nan
56518;BME280;42419;48.760;2.322;2023-07-20T07:41:44;100935.16;;;22.96;nan
56518;BME280;42419;48.760;2.322;2023-07-20T07:44:09;100917.69;;;22.88;nan
56518;BME280;42419;48.760;2.322;2023-07-20T07:46:34;100863.75;;;22.56;nan
56518;BME280;42419;48.760;2.322;2023-07-20T07:48:59;100926.41;;;22.93;nan
56518;BME280;42419;48.760;2.322;2023-07-20T07:51:25;100941.09;;;23.03;nan
56518;BME280;42419;48.760;2.322;2023-07-20T07:53:52;100905.84;;;22.92;nan
56518;BME280;42419;48.760;2.322;2023-07-20T07:56:17;100928.19;;;23.11;nan
56518;BME280;42419;48.760;2.322;2023-07-20T07:58:47;100922.66;;;23.14;nan
56518;BME280;42419;48.760;2.322;2023-07-20T08:01:13;100911.50;;;23.04;nan
56518;BME280;42419;48.760;2.322;2023-07-20T08:03:38;100923.25;;;23.20;nan
56518;BME280;42419;48.760;2.322;2023-07-20T08:06:03;100926.56;;;23.25;nan
56518;BME280;42419;48.760;2.322;2023-07-20T08:08:31;100928.31;;;23.26;nan
56518;BME280;42419;48.760;2.322;2023-07-20T08:10:56;100920.19;;;23.28;nan
56518;BME280;42419;48.760;2.322;2023-07-20T08:13:21;100920.97;;;23.30;nan
56518;BME280;42419;48.760;2.322;2023-07-20T08:15:50;100925.25;;;23.34;nan
56518;BME280;42419;48.760;2.322;2023-07-20T08:18:17;100919.72;;;23.37;nan
56518;BME280;42419;48.760;2.322;2023-07-20T08:20:45;100900.34;;;23.31;nan
56518;BME280;42419;48.760;2.322;2023-07-20T08:23:12;100920.38;;;23.42;nan
56518;BME280;42419;48.760;2.322;2023-07-20T08:25:37;100922.97;;;23.44;nan
56518;BME280;42419;48.760;2.322;2023-07-20T08:28:04;100908.88;;;23.39;nan
56518;BME280;42419;48.760;2.322;2023-07-20T08:30:42;100915.72;;;23.46;nan
56518;BME280;42419;48.760;2.322;2023-07-20T08:33:16;100920.03;;;23.48;nan
56518;BME280;42419;48.760;2.322;2023-07-20T08:35:43;100910.09;;;23.50;nan
56518;BME280;42419;48.760;2.322;2023-07-20T08:38:08;100907.41;;;23.50;nan
56518;BME280;42419;48.760;2.322;2023-07-20T08:40:39;100882.13;;;23.37;nan
56518;BME280;42419;48.760;2.322;2023-07-20T08:43:05;100885.50;;;23.41;nan
56518;BME280;42419;48.760;2.322;2023-07-20T08:45:32;100888.72;;;23.47;nan
56518;BME280;42419;48.760;2.322;2023-07-20T08:47:58;100895.31;;;23.59;nan
56518;BME280;42419;48.760;2.322;2023-07-20T08:50:26;100889.69;;;23.63;nan
56518;BME280;42419;48.760;2.322;2023-07-20T08:52:55;100891.34;;;23.66;nan
56518;BME280;42419;48.760;2.322;2023-07-20T08:55:21;100901.31;;;23.81;nan
56518;BME280;42419;48.760;2.322;2023-07-20T08:57:50;100908.94;;;23.90;nan
56518;BME280;42419;48.760;2.322;2023-07-20T09:00:17;100902.38;;;23.96;nan
56518;BME280;42419;48.760;2.322;2023-07-20T09:02:45;100903.13;;;23.98;nan
56518;BME280;42419;48.760;2.322;2023-07-20T09:05:10;100892.38;;;23.98;nan
56518;BME280;42419;48.760;2.322;2023-07-20T09:07:39;100896.00;;;24.14;nan
56518;BME280;42419;48.760;2.322;2023-07-20T09:10:08;100901.03;;;24.20;nan
56518;BME280;42419;48.760;2.322;2023-07-20T09:12:38;100896.94;;;24.13;nan
56518;BME280;42419;48.760;2.322;2023-07-20T09:15:04;100899.28;;;24.19;nan
56518;BME280;42419;48.760;2.322;2023-07-20T09:17:30;100895.03;;;24.15;nan
56518;BME280;42419;48.760;2.322;2023-07-20T09:19:55;100881.06;;;24.08;nan
56518;BME280;42419;48.760;2.322;2023-07-20T09:22:21;100885.25;;;24.14;nan
56518;BME280;42419;48.760;2.322;2023-07-20T09:24:46;100873.84;;;24.09;nan
56518;BME280;42419;48.760;2.322;2023-07-20T09:27:11;100893.56;;;24.25;nan
56518;BME280;42419;48.760;2.322;2023-07-20T09:29:52;100897.13;;;24.26;nan
56518;BME280;42419;48.760;2.322;2023-07-20T09:32:19;100888.75;;;24.32;nan
56518;BME280;42419;48.760;2.322;2023-07-20T09:34:45;100865.09;;;24.21;nan
56518;BME280;42419;48.760;2.322;2023-07-20T09:37:11;100878.81;;;24.32;nan
56518;BME280;42419;48.760;2.322;2023-07-20T09:39:45;100890.13;;;24.39;nan
56518;BME280;42419;48.760;2.322;2023-07-20T09:42:12;100886.31;;;24.43;nan
56518;BME280;42419;48.760;2.322;2023-07-20T09:44:43;100885.44;;;24.42;nan
56518;BME280;42419;48.760;2.322;2023-07-20T09:47:09;100876.19;;;24.48;nan
56518;BME280;42419;48.760;2.322;2023-07-20T09:49:42;100880.38;;;24.53;nan
56518;BME280;42419;48.760;2.322;2023-07-20T09:52:11;100851.97;;;24.48;nan
56518;BME280;42419;48.760;2.322;2023-07-20T09:54:40;100876.81;;;24.69;nan
56518;BME280;42419;48.760;2.322;2023-07-20T09:57:08;100847.03;;;24.56;nan
56518;BME280;42419;48.760;2.322;2023-07-20T09:59:34;100860.38;;;24.73;nan
56518;BME280;42419;48.760;2.322;2023-07-20T10:02:01;100868.81;;;24.83;nan
56518;BME280;42419;48.760;2.322;2023-07-20T10:04:28;100872.13;;;24.88;nan
56518;BME280;42419;48.760;2.322;2023-07-20T10:06:55;100876.44;;;24.90;nan
56518;BME280;42419;48.760;2.322;2023-07-20T10:09:22;100852.84;;;24.80;nan
56518;BME280;42419;48.760;2.322;2023-07-20T10:11:50;100868.47;;;24.89;nan
56518;BME280;42419;48.760;2.322;2023-07-20T10:14:19;100865.66;;;24.90;nan
56518;BME280;42419;48.760;2.322;2023-07-20T10:16:55;100852.03;;;24.93;nan
56518;BME280;42419;48.760;2.322;2023-07-20T10:19:27;100864.19;;;25.00;nan
56518;BME280;42419;48.760;2.322;2023-07-20T10:21:59;100853.22;;;25.03;nan
56518;BME280;42419;48.760;2.322;2023-07-20T10:24:26;100851.09;;;25.10;nan
56518;BME280;42419;48.760;2.322;2023-07-20T10:26:53;100846.28;;;25.15;nan
56518;BME280;42419;48.760;2.322;2023-07-20T10:29:19;100844.88;;;25.24;nan
56518;BME280;42419;48.760;2.322;2023-07-20T10:31:45;100839.41;;;25.25;nan
56518;BME280;42419;48.760;2.322;2023-07-20T10:34:11;100837.28;;;25.30;nan
56518;BME280;42419;48.760;2.322;2023-07-20T10:36:44;100839.81;;;25.33;nan
56518;BME280;42419;48.760;2.322;2023-07-20T10:39:25;100833.28;;;25.37;nan
56518;BME280;42419;48.760;2.322;2023-07-20T10:42:09;100820.00;;;25.34;nan
56518;BME280;42419;48.760;2.322;2023-07-20T10:44:39;100813.44;;;25.38;nan
56518;BME280;42419;48.760;2.322;2023-07-20T10:47:12;100827.13;;;25.49;nan
56518;BME280;42419;48.760;2.322;2023-07-20T10:50:00;100829.81;;;25.49;nan
56518;BME280;42419;48.760;2.322;2023-07-20T10:52:25;100818.47;;;25.59;nan
56518;BME280;42419;48.760;2.322;2023-07-20T10:54:51;100820.88;;;25.63;nan
56518;BME280;42419;48.760;2.322;2023-07-20T10:57:22;100823.38;;;25.66;nan
56518;BME280;42419;48.760;2.322;2023-07-20T10:59:48;100826.78;;;25.70;nan
56518;BME280;42419;48.760;2.322;2023-07-20T11:02:18;100825.84;;;25.71;nan
56518;BME280;42419;48.760;2.322;2023-07-20T11:04:47;100822.78;;;25.77;nan
56518;BME280;42419;48.760;2.322;2023-07-20T11:07:17;100798.28;;;25.66;nan
56518;BME280;42419;48.760;2.322;2023-07-20T11:09:43;100820.56;;;25.83;nan
56518;BME280;42419;48.760;2.322;2023-07-20T11:12:13;100815.84;;;25.87;nan
56518;BME280;42419;48.760;2.322;2023-07-20T11:14:44;100812.94;;;25.90;nan
56518;BME280;42419;48.760;2.322;2023-07-20T11:17:17;100801.00;;;25.94;nan
56518;BME280;42419;48.760;2.322;2023-07-20T11:19:48;100817.00;;;25.97;nan
56518;BME280;42419;48.760;2.322;2023-07-20T11:22:16;100817.00;;;25.97;nan
56518;BME280;42419;48.760;2.322;2023-07-20T11:24:42;100812.38;;;25.99;nan
56518;BME280;42419;48.760;2.322;2023-07-20T11:27:07;100809.47;;;26.02;nan
56518;BME280;42419;48.760;2.322;2023-07-20T11:29:34;100812.16;;;26.02;nan
56518;BME280;42419;48.760;2.322;2023-07-20T11:32:01;100815.56;;;26.06;nan
56518;BME280;42419;48.760;2.322;2023-07-20T11:34:29;100803.19;;;26.02;nan
56518;BME280;42419;48.760;2.322;2023-07-20T11:36:55;100806.19;;;26.11;nan
56518;BME280;42419;48.760;2.322;2023-07-20T11:39:22;100804.94;;;26.17;nan
56518;BME280;42419;48.760;2.322;2023-07-20T11:41:51;100796.63;;;26.20;nan
56518;BME280;42419;48.760;2.322;2023-07-20T11:44:18;100791.03;;;26.23;nan
56518;BME280;42419;48.760;2.322;2023-07-20T11:46:44;100778.03;;;26.15;nan
56518;BME280;42419;48.760;2.322;2023-07-20T11:49:10;100776.09;;;26.17;nan
56518;BME280;42419;48.760;2.322;2023-07-20T11:51:36;100786.91;;;26.31;nan
56518;BME280;42419;48.760;2.322;2023-07-20T11:54:04;100784.88;;;26.35;nan
56518;BME280;42419;48.760;2.322;2023-07-20T11:56:30;100786.41;;;26.39;nan
56518;BME280;42419;48.760;2.322;2023-07-20T11:58:57;100780.78;;;26.42;nan
56518;BME280;42419;48.760;2.322;2023-07-20T12:01:25;100761.44;;;26.35;nan
56518;BME280;42419;48.760;2.322;2023-07-20T12:03:55;100764.59;;;26.42;nan
56518;BME280;42419;48.760;2.322;2023-07-20T12:06:23;100774.63;;;26.54;nan
56518;BME280;42419;48.760;2.322;2023-07-20T12:08:48;100772.09;;;26.51;nan
56518;BME280;42419;48.760;2.322;2023-07-20T12:11:13;100766.81;;;26.50;nan
56518;BME280;42419;48.760;2.322;2023-07-20T12:13:42;100775.47;;;26.55;nan
56518;BME280;42419;48.760;2.322;2023-07-20T12:16:13;100760.53;;;26.49;nan
56518;BME280;42419;48.760;2.322;2023-07-20T12:18:39;100752.53;;;26.48;nan
56518;BME280;42419;48.760;2.322;2023-07-20T12:21:06;100768.03;;;26.58;nan
56518;BME280;42419;48.760;2.322;2023-07-20T12:23:37;100758.09;;;26.59;nan
56518;BME280;42419;48.760;2.322;2023-07-20T12:26:02;100739.38;;;26.56;nan
56518;BME280;42419;48.760;2.322;2023-07-20T12:28:29;100751.63;;;26.61;nan
56518;BME280;42419;48.760;2.322;2023-07-20T12:30:54;100751.41;;;26.64;nan
56518;BME280;42419;48.760;2.322;2023-07-20T12:33:22;100732.81;;;26.60;nan
56518;BME280;42419;48.760;2.322;2023-07-20T12:35:48;100738.75;;;26.65;nan
56518;BME280;42419;48.760;2.322;2023-07-20T12:38:13;100747.25;;;26.73;nan
56518;BME280;42419;48.760;2.322;2023-07-20T12:40:39;100737.28;;;26.73;nan
56518;BME280;42419;48.760;2.322;2023-07-20T12:43:05;100743.16;;;26.80;nan
56518;BME280;42419;48.760;2.322;2023-07-20T12:45:31;100723.91;;;26.72;nan
56518;BME280;42419;48.760;2.322;2023-07-20T12:47:57;100741.41;;;26.79;nan
56518;BME280;42419;48.760;2.322;2023-07-20T12:50:22;100737.53;;;26.83;nan
56518;BME280;42419;48.760;2.322;2023-07-20T12:52:47;100725.41;;;26.76;nan
56518;BME280;42419;48.760;2.322;2023-07-20T12:55:13;100738.59;;;26.80;nan
56518;BME280;42419;48.760;2.322;2023-07-20T12:57:40;100729.72;;;26.78;nan
56518;BME280;42419;48.760;2.322;2023-07-20T13:00:08;100733.44;;;26.77;nan
56518;BME280;42419;48.760;2.322;2023-07-20T13:02:34;100724.22;;;26.80;nan
56518;BME280;42419;48.760;2.322;2023-07-20T13:05:00;100726.72;;;26.83;nan
56518;BME280;42419;48.760;2.322;2023-07-20T13:07:38;100708.66;;;26.84;nan
56518;BME280;42419;48.760;2.322;2023-07-20T13:10:05;100705.97;;;26.84;nan
56518;BME280;42419;48.760;2.322;2023-07-20T13:12:32;100709.75;;;26.81;nan
56518;BME280;42419;48.760;2.322;2023-07-20T13:14:58;100701.75;;;26.79;nan
56518;BME280;42419;48.760;2.322;2023-07-20T13:17:27;100700.22;;;26.75;nan